Terminal Aerodrome Forecast
Issued by NWS Twin Cities, MN

Home | Current Version | Previous Version | Text Only | Print | Product List | Glossary Off
Versions: 1 2 3 4 5 6 7 8 9 10 11 12 13 14 15 16 17 18

266
FTUS43 KMPX 042334
TAFEAU
TAF
KEAU 042334Z 0500/0524 28003KT 6SM -SN OVC020
     FM050430 VRB03KT P6SM SKC
     FM051700 18007KT P6SM OVC090=

USA.gov is the U.S. government's official web portal to all federal, state and local government web resources and services.